sensor_id;sensor_type;location;lat;lon;timestamp;P1;durP1;ratioP1;P2;durP2;ratioP2
4547;SDS011;2286;51.570;7.090;2023-08-30T00:00:52;12.00;;;11.03;;
4547;SDS011;2286;51.570;7.090;2023-08-30T00:03:19;13.10;;;11.90;;
4547;SDS011;2286;51.570;7.090;2023-08-30T00:05:46;12.50;;;11.50;;
4547;SDS011;2286;51.570;7.090;2023-08-30T00:08:13;13.23;;;12.03;;
4547;SDS011;2286;51.570;7.090;2023-08-30T00:10:43;13.50;;;12.20;;
4547;SDS011;2286;51.570;7.090;2023-08-30T00:13:10;13.33;;;12.13;;
4547;SDS011;2286;51.570;7.090;2023-08-30T00:15:39;14.37;;;13.17;;
4547;SDS011;2286;51.570;7.090;2023-08-30T00:18:06;13.87;;;12.63;;
4547;SDS011;2286;51.570;7.090;2023-08-30T00:20:33;13.77;;;12.70;;
4547;SDS011;2286;51.570;7.090;2023-08-30T00:23:00;14.43;;;12.93;;
4547;SDS011;2286;51.570;7.090;2023-08-30T00:25:27;14.20;;;13.10;;
4547;SDS011;2286;51.570;7.090;2023-08-30T00:27:54;14.50;;;13.23;;
4547;SDS011;2286;51.570;7.090;2023-08-30T00:30:20;14.40;;;13.07;;
4547;SDS011;2286;51.570;7.090;2023-08-30T00:32:49;13.20;;;12.07;;
4547;SDS011;2286;51.570;7.090;2023-08-30T00:35:16;12.00;;;11.03;;
4547;SDS011;2286;51.570;7.090;2023-08-30T00:37:43;11.03;;;10.13;;
4547;SDS011;2286;51.570;7.090;2023-08-30T00:40:10;14.27;;;13.07;;
4547;SDS011;2286;51.570;7.090;2023-08-30T00:42:37;13.27;;;11.80;;
4547;SDS011;2286;51.570;7.090;2023-08-30T00:45:06;13.17;;;12.07;;
4547;SDS011;2286;51.570;7.090;2023-08-30T00:47:33;13.83;;;12.77;;
4547;SDS011;2286;51.570;7.090;2023-08-30T00:50:02;14.73;;;13.43;;
4547;SDS011;2286;51.570;7.090;2023-08-30T00:52:30;14.27;;;12.97;;
4547;SDS011;2286;51.570;7.090;2023-08-30T00:54:57;13.67;;;12.53;;
4547;SDS011;2286;51.570;7.090;2023-08-30T00:57:23;18.10;;;14.00;;
4547;SDS011;2286;51.570;7.090;2023-08-30T00:59:51;14.93;;;13.83;;
4547;SDS011;2286;51.570;7.090;2023-08-30T01:02:19;15.00;;;13.73;;
4547;SDS011;2286;51.570;7.090;2023-08-30T01:04:46;15.80;;;14.50;;
4547;SDS011;2286;51.570;7.090;2023-08-30T01:07:15;17.03;;;15.43;;
4547;SDS011;2286;51.570;7.090;2023-08-30T01:09:42;15.40;;;14.00;;
4547;SDS011;2286;51.570;7.090;2023-08-30T01:12:10;14.43;;;13.03;;
4547;SDS011;2286;51.570;7.090;2023-08-30T01:14:43;14.00;;;12.80;;
4547;SDS011;2286;51.570;7.090;2023-08-30T01:17:23;14.43;;;13.33;;
4547;SDS011;2286;51.570;7.090;2023-08-30T01:19:51;15.50;;;14.17;;
4547;SDS011;2286;51.570;7.090;2023-08-30T01:22:28;16.23;;;14.73;;
4547;SDS011;2286;51.570;7.090;2023-08-30T01:25:08;16.57;;;14.87;;
4547;SDS011;2286;51.570;7.090;2023-08-30T01:27:42;18.60;;;16.80;;
4547;SDS011;2286;51.570;7.090;2023-08-30T01:30:11;18.53;;;16.83;;
4547;SDS011;2286;51.570;7.090;2023-08-30T01:32:40;17.60;;;15.83;;
4547;SDS011;2286;51.570;7.090;2023-08-30T01:35:09;16.10;;;14.50;;
4547;SDS011;2286;51.570;7.090;2023-08-30T01:37:36;16.17;;;14.67;;
4547;SDS011;2286;51.570;7.090;2023-08-30T01:40:05;19.50;;;17.80;;
4547;SDS011;2286;51.570;7.090;2023-08-30T01:42:34;14.10;;;12.90;;
4547;SDS011;2286;51.570;7.090;2023-08-30T01:45:05;16.27;;;13.13;;
4547;SDS011;2286;51.570;7.090;2023-08-30T01:47:34;17.80;;;15.60;;
4547;SDS011;2286;51.570;7.090;2023-08-30T01:50:02;16.47;;;15.10;;
4547;SDS011;2286;51.570;7.090;2023-08-30T01:52:30;17.70;;;16.20;;
4547;SDS011;2286;51.570;7.090;2023-08-30T01:54:58;18.63;;;16.77;;
4547;SDS011;2286;51.570;7.090;2023-08-30T01:57:26;18.23;;;16.53;;
4547;SDS011;2286;51.570;7.090;2023-08-30T01:59:53;17.57;;;15.97;;
4547;SDS011;2286;51.570;7.090;2023-08-30T02:02:21;14.60;;;13.20;;
4547;SDS011;2286;51.570;7.090;2023-08-30T02:04:48;17.60;;;14.00;;
4547;SDS011;2286;51.570;7.090;2023-08-30T02:07:16;15.77;;;14.20;;
4547;SDS011;2286;51.570;7.090;2023-08-30T02:09:48;16.83;;;15.47;;
4547;SDS011;2286;51.570;7.090;2023-08-30T02:12:22;18.50;;;16.67;;
4547;SDS011;2286;51.570;7.090;2023-08-30T02:14:51;19.13;;;17.40;;
4547;SDS011;2286;51.570;7.090;2023-08-30T02:17:22;16.20;;;14.70;;
4547;SDS011;2286;51.570;7.090;2023-08-30T02:19:50;16.23;;;14.73;;
4547;SDS011;2286;51.570;7.090;2023-08-30T02:22:18;17.63;;;15.93;;
4547;SDS011;2286;51.570;7.090;2023-08-30T02:24:46;17.27;;;15.70;;
4547;SDS011;2286;51.570;7.090;2023-08-30T02:27:13;17.43;;;15.63;;
4547;SDS011;2286;51.570;7.090;2023-08-30T02:29:39;17.47;;;15.97;;
4547;SDS011;2286;51.570;7.090;2023-08-30T02:32:06;16.67;;;15.17;;
4547;SDS011;2286;51.570;7.090;2023-08-30T02:34:35;18.17;;;16.67;;
4547;SDS011;2286;51.570;7.090;2023-08-30T02:37:02;19.67;;;17.63;;
4547;SDS011;2286;51.570;7.090;2023-08-30T02:39:29;22.00;;;18.20;;
4547;SDS011;2286;51.570;7.090;2023-08-30T02:41:56;19.10;;;17.17;;
4547;SDS011;2286;51.570;7.090;2023-08-30T02:44:23;21.27;;;16.83;;
4547;SDS011;2286;51.570;7.090;2023-08-30T02:46:50;20.50;;;18.57;;
4547;SDS011;2286;51.570;7.090;2023-08-30T02:49:17;23.80;;;19.90;;
4547;SDS011;2286;51.570;7.090;2023-08-30T02:51:45;21.80;;;19.80;;
4547;SDS011;2286;51.570;7.090;2023-08-30T02:54:12;21.93;;;19.93;;
4547;SDS011;2286;51.570;7.090;2023-08-30T02:56:39;18.70;;;17.00;;
4547;SDS011;2286;51.570;7.090;2023-08-30T02:59:07;19.20;;;17.40;;
4547;SDS011;2286;51.570;7.090;2023-08-30T03:01:34;20.47;;;18.30;;
4547;SDS011;2286;51.570;7.090;2023-08-30T03:04:01;21.33;;;19.13;;
4547;SDS011;2286;51.570;7.090;2023-08-30T03:06:28;21.00;;;19.07;;
4547;SDS011;2286;51.570;7.090;2023-08-30T03:08:56;22.17;;;20.17;;
4547;SDS011;2286;51.570;7.090;2023-08-30T03:11:23;23.83;;;21.47;;
4547;SDS011;2286;51.570;7.090;2023-08-30T03:13:50;21.63;;;19.70;;
4547;SDS011;2286;51.570;7.090;2023-08-30T03:16:19;25.47;;;20.70;;
4547;SDS011;2286;51.570;7.090;2023-08-30T03:18:47;24.53;;;22.23;;
4547;SDS011;2286;51.570;7.090;2023-08-30T03:21:14;26.20;;;23.73;;
4547;SDS011;2286;51.570;7.090;2023-08-30T03:23:41;24.40;;;21.87;;
4547;SDS011;2286;51.570;7.090;2023-08-30T03:26:09;23.30;;;21.10;;
4547;SDS011;2286;51.570;7.090;2023-08-30T03:28:37;22.77;;;20.53;;
4547;SDS011;2286;51.570;7.090;2023-08-30T03:31:10;22.40;;;20.30;;
4547;SDS011;2286;51.570;7.090;2023-08-30T03:33:38;25.40;;;22.10;;
4547;SDS011;2286;51.570;7.090;2023-08-30T03:36:06;22.60;;;20.30;;
4547;SDS011;2286;51.570;7.090;2023-08-30T03:38:34;23.90;;;21.77;;
4547;SDS011;2286;51.570;7.090;2023-08-30T03:41:01;24.80;;;22.50;;
4547;SDS011;2286;51.570;7.090;2023-08-30T03:43:30;21.23;;;19.13;;
4547;SDS011;2286;51.570;7.090;2023-08-30T03:45:58;21.17;;;19.17;;
4547;SDS011;2286;51.570;7.090;2023-08-30T03:48:25;19.67;;;17.87;;
4547;SDS011;2286;51.570;7.090;2023-08-30T03:50:52;19.83;;;17.97;;
4547;SDS011;2286;51.570;7.090;2023-08-30T03:53:20;20.30;;;18.40;;
4547;SDS011;2286;51.570;7.090;2023-08-30T03:55:47;20.50;;;18.50;;
4547;SDS011;2286;51.570;7.090;2023-08-30T03:58:14;19.77;;;17.97;;
4547;SDS011;2286;51.570;7.090;2023-08-30T04:00:42;20.47;;;18.30;;
4547;SDS011;2286;51.570;7.090;2023-08-30T04:03:09;20.60;;;18.60;;
4547;SDS011;2286;51.570;7.090;2023-08-30T04:05:36;20.93;;;18.73;;
4547;SDS011;2286;51.570;7.090;2023-08-30T04:08:04;21.87;;;19.77;;
4547;SDS011;2286;51.570;7.090;2023-08-30T04:10:34;25.40;;;23.00;;
4547;SDS011;2286;51.570;7.090;2023-08-30T04:13:01;26.77;;;24.17;;
4547;SDS011;2286;51.570;7.090;2023-08-30T04:15:28;25.37;;;22.83;;
4547;SDS011;2286;51.570;7.090;2023-08-30T04:17:56;27.77;;;24.93;;
4547;SDS011;2286;51.570;7.090;2023-08-30T04:20:23;21.30;;;19.40;;
4547;SDS011;2286;51.570;7.090;2023-08-30T04:22:50;21.73;;;19.80;;
4547;SDS011;2286;51.570;7.090;2023-08-30T04:25:18;23.57;;;21.53;;
4547;SDS011;2286;51.570;7.090;2023-08-30T04:27:45;23.10;;;20.80;;
4547;SDS011;2286;51.570;7.090;2023-08-30T04:30:12;23.27;;;20.67;;
4547;SDS011;2286;51.570;7.090;2023-08-30T04:32:39;26.33;;;23.77;;
4547;SDS011;2286;51.570;7.090;2023-08-30T04:35:08;25.00;;;22.43;;
4547;SDS011;2286;51.570;7.090;2023-08-30T04:37:35;28.77;;;23.90;;
4547;SDS011;2286;51.570;7.090;2023-08-30T04:40:04;26.50;;;23.80;;
4547;SDS011;2286;51.570;7.090;2023-08-30T04:42:33;24.90;;;22.40;;
4547;SDS011;2286;51.570;7.090;2023-08-30T04:44:59;24.63;;;22.23;;
4547;SDS011;2286;51.570;7.090;2023-08-30T04:47:26;25.03;;;22.70;;
4547;SDS011;2286;51.570;7.090;2023-08-30T04:49:53;27.07;;;24.27;;
4547;SDS011;2286;51.570;7.090;2023-08-30T04:52:22;27.57;;;24.87;;
4547;SDS011;2286;51.570;7.090;2023-08-30T04:54:49;27.70;;;25.00;;
4547;SDS011;2286;51.570;7.090;2023-08-30T04:57:16;28.70;;;25.27;;
4547;SDS011;2286;51.570;7.090;2023-08-30T04:59:43;27.53;;;24.73;;
4547;SDS011;2286;51.570;7.090;2023-08-30T05:02:11;27.97;;;25.30;;
4547;SDS011;2286;51.570;7.090;2023-08-30T05:04:38;27.80;;;25.07;;
4547;SDS011;2286;51.570;7.090;2023-08-30T05:07:05;28.40;;;25.70;;
4547;SDS011;2286;51.570;7.090;2023-08-30T05:09:34;27.20;;;24.50;;
4547;SDS011;2286;51.570;7.090;2023-08-30T05:12:01;28.03;;;24.93;;
4547;SDS011;2286;51.570;7.090;2023-08-30T05:14:28;29.03;;;26.03;;
4547;SDS011;2286;51.570;7.090;2023-08-30T05:16:55;28.83;;;25.87;;
4547;SDS011;2286;51.570;7.090;2023-08-30T05:19:22;27.73;;;25.03;;
4547;SDS011;2286;51.570;7.090;2023-08-30T05:21:49;27.10;;;24.37;;
4547;SDS011;2286;51.570;7.090;2023-08-30T05:24:19;25.37;;;22.90;;
4547;SDS011;2286;51.570;7.090;2023-08-30T05:26:48;28.80;;;26.00;;
4547;SDS011;2286;51.570;7.090;2023-08-30T05:29:15;29.17;;;26.30;;
4547;SDS011;2286;51.570;7.090;2023-08-30T05:31:41;27.13;;;24.33;;
4547;SDS011;2286;51.570;7.090;2023-08-30T05:34:09;30.03;;;26.60;;
4547;SDS011;2286;51.570;7.090;2023-08-30T05:36:36;27.20;;;24.60;;
4547;SDS011;2286;51.570;7.090;2023-08-30T05:39:03;29.83;;;27.03;;
4547;SDS011;2286;51.570;7.090;2023-08-30T05:41:30;31.37;;;27.90;;
4547;SDS011;2286;51.570;7.090;2023-08-30T05:43:58;32.43;;;28.93;;
4547;SDS011;2286;51.570;7.090;2023-08-30T05:46:25;30.40;;;27.20;;
4547;SDS011;2286;51.570;7.090;2023-08-30T05:48:52;29.23;;;26.30;;
4547;SDS011;2286;51.570;7.090;2023-08-30T05:51:19;33.50;;;28.67;;
4547;SDS011;2286;51.570;7.090;2023-08-30T05:53:46;30.30;;;27.37;;
4547;SDS011;2286;51.570;7.090;2023-08-30T05:56:13;29.17;;;26.27;;
4547;SDS011;2286;51.570;7.090;2023-08-30T05:58:40;30.80;;;27.50;;
4547;SDS011;2286;51.570;7.090;2023-08-30T06:01:08;31.10;;;27.83;;
4547;SDS011;2286;51.570;7.090;2023-08-30T06:03:35;30.07;;;27.07;;
4547;SDS011;2286;51.570;7.090;2023-08-30T06:06:02;31.57;;;28.27;;
4547;SDS011;2286;51.570;7.090;2023-08-30T06:08:29;32.03;;;26.70;;
4547;SDS011;2286;51.570;7.090;2023-08-30T06:10:56;29.40;;;26.70;;
4547;SDS011;2286;51.570;7.090;2023-08-30T06:13:23;31.90;;;28.70;;
4547;SDS011;2286;51.570;7.090;2023-08-30T06:15:50;32.70;;;29.30;;
4547;SDS011;2286;51.570;7.090;2023-08-30T06:18:19;31.80;;;28.30;;
4547;SDS011;2286;51.570;7.090;2023-08-30T06:20:46;31.50;;;28.20;;
4547;SDS011;2286;51.570;7.090;2023-08-30T06:23:13;31.77;;;28.47;;
4547;SDS011;2286;51.570;7.090;2023-08-30T06:25:41;32.07;;;28.87;;
4547;SDS011;2286;51.570;7.090;2023-08-30T06:28:08;35.10;;;31.50;;
4547;SDS011;2286;51.570;7.090;2023-08-30T06:30:35;31.73;;;28.53;;
4547;SDS011;2286;51.570;7.090;2023-08-30T06:33:03;34.73;;;31.40;;
4547;SDS011;2286;51.570;7.090;2023-08-30T06:35:31;34.10;;;30.40;;
4547;SDS011;2286;51.570;7.090;2023-08-30T06:37:58;30.00;;;27.00;;
4547;SDS011;2286;51.570;7.090;2023-08-30T06:40:25;36.63;;;33.10;;
4547;SDS011;2286;51.570;7.090;2023-08-30T06:42:52;37.33;;;33.93;;
4547;SDS011;2286;51.570;7.090;2023-08-30T06:45:19;35.23;;;31.80;;
4547;SDS011;2286;51.570;7.090;2023-08-30T06:47:47;33.57;;;30.43;;
4547;SDS011;2286;51.570;7.090;2023-08-30T06:50:14;35.20;;;31.73;;
4547;SDS011;2286;51.570;7.090;2023-08-30T06:52:43;37.17;;;33.43;;
4547;SDS011;2286;51.570;7.090;2023-08-30T06:55:09;39.03;;;33.93;;
4547;SDS011;2286;51.570;7.090;2023-08-30T06:57:36;35.60;;;32.20;;
4547;SDS011;2286;51.570;7.090;2023-08-30T07:00:04;36.50;;;32.80;;
4547;SDS011;2286;51.570;7.090;2023-08-30T07:02:33;33.20;;;30.00;;
4547;SDS011;2286;51.570;7.090;2023-08-30T07:05:01;36.20;;;32.70;;
4547;SDS011;2286;51.570;7.090;2023-08-30T07:07:29;35.53;;;31.77;;
4547;SDS011;2286;51.570;7.090;2023-08-30T07:09:58;34.70;;;31.00;;
4547;SDS011;2286;51.570;7.090;2023-08-30T07:12:25;34.20;;;30.80;;
4547;SDS011;2286;51.570;7.090;2023-08-30T07:14:52;30.67;;;27.70;;
4547;SDS011;2286;51.570;7.090;2023-08-30T07:17:19;31.60;;;28.40;;
4547;SDS011;2286;51.570;7.090;2023-08-30T07:19:46;29.47;;;26.67;;
4547;SDS011;2286;51.570;7.090;2023-08-30T07:22:13;28.27;;;25.50;;
4547;SDS011;2286;51.570;7.090;2023-08-30T07:24:41;27.30;;;24.70;;
4547;SDS011;2286;51.570;7.090;2023-08-30T07:27:10;25.47;;;23.13;;
4547;SDS011;2286;51.570;7.090;2023-08-30T07:29:37;24.70;;;22.40;;
4547;SDS011;2286;51.570;7.090;2023-08-30T07:32:05;23.80;;;21.27;;
4547;SDS011;2286;51.570;7.090;2023-08-30T07:34:32;21.70;;;19.50;;
4547;SDS011;2286;51.570;7.090;2023-08-30T07:36:59;23.27;;;21.07;;
4547;SDS011;2286;51.570;7.090;2023-08-30T07:39:26;22.63;;;20.63;;
4547;SDS011;2286;51.570;7.090;2023-08-30T07:41:53;19.43;;;17.67;;
4547;SDS011;2286;51.570;7.090;2023-08-30T07:44:21;20.50;;;18.50;;
4547;SDS011;2286;51.570;7.090;2023-08-30T07:46:48;20.33;;;18.17;;
4547;SDS011;2286;51.570;7.090;2023-08-30T07:49:15;18.73;;;16.80;;
4547;SDS011;2286;51.570;7.090;2023-08-30T07:51:42;16.77;;;15.00;;
4547;SDS011;2286;51.570;7.090;2023-08-30T07:54:09;16.73;;;13.57;;
4547;SDS011;2286;51.570;7.090;2023-08-30T07:56:36;17.17;;;15.53;;
4547;SDS011;2286;51.570;7.090;2023-08-30T07:59:03;14.67;;;13.37;;
4547;SDS011;2286;51.570;7.090;2023-08-30T08:01:31;13.87;;;12.20;;
4547;SDS011;2286;51.570;7.090;2023-08-30T08:03:58;13.43;;;12.33;;
4547;SDS011;2286;51.570;7.090;2023-08-30T08:06:25;13.47;;;12.27;;
4547;SDS011;2286;51.570;7.090;2023-08-30T08:08:52;12.93;;;11.53;;
4547;SDS011;2286;51.570;7.090;2023-08-30T08:11:19;12.70;;;11.47;;
4547;SDS011;2286;51.570;7.090;2023-08-30T08:13:46;13.17;;;11.73;;
4547;SDS011;2286;51.570;7.090;2023-08-30T08:16:12;10.90;;;10.00;;
4547;SDS011;2286;51.570;7.090;2023-08-30T08:18:41;12.73;;;10.00;;
4547;SDS011;2286;51.570;7.090;2023-08-30T08:21:08;12.00;;;9.47;;
4547;SDS011;2286;51.570;7.090;2023-08-30T08:23:35;9.80;;;8.87;;
4547;SDS011;2286;51.570;7.090;2023-08-30T08:26:01;9.80;;;8.97;;
4547;SDS011;2286;51.570;7.090;2023-08-30T08:28:28;14.87;;;8.27;;
4547;SDS011;2286;51.570;7.090;2023-08-30T08:30:55;8.87;;;8.00;;
4547;SDS011;2286;51.570;7.090;2023-08-30T08:33:22;10.30;;;7.70;;
4547;SDS011;2286;51.570;7.090;2023-08-30T08:35:50;9.23;;;6.77;;
4547;SDS011;2286;51.570;7.090;2023-08-30T08:38:17;7.47;;;5.83;;
4547;SDS011;2286;51.570;7.090;2023-08-30T08:40:44;6.40;;;5.80;;
4547;SDS011;2286;51.570;7.090;2023-08-30T08:43:11;6.80;;;6.10;;
4547;SDS011;2286;51.570;7.090;2023-08-30T08:45:39;7.73;;;5.60;;
4547;SDS011;2286;51.570;7.090;2023-08-30T08:48:06;6.13;;;5.63;;
4547;SDS011;2286;51.570;7.090;2023-08-30T08:50:33;6.23;;;5.57;;
4547;SDS011;2286;51.570;7.090;2023-08-30T08:53:02;6.10;;;5.37;;
4547;SDS011;2286;51.570;7.090;2023-08-30T08:55:30;6.30;;;5.70;;
4547;SDS011;2286;51.570;7.090;2023-08-30T08:57:57;6.17;;;5.57;;
4547;SDS011;2286;51.570;7.090;2023-08-30T09:00:25;5.67;;;5.27;;
4547;SDS011;2286;51.570;7.090;2023-08-30T09:02:52;5.90;;;5.23;;
4547;SDS011;2286;51.570;7.090;2023-08-30T09:05:20;5.63;;;5.13;;
4547;SDS011;2286;51.570;7.090;2023-08-30T09:07:47;5.20;;;4.70;;
4547;SDS011;2286;51.570;7.090;2023-08-30T09:10:20;6.40;;;5.80;;
4547;SDS011;2286;51.570;7.090;2023-08-30T09:12:47;11.13;;;5.90;;
4547;SDS011;2286;51.570;7.090;2023-08-30T09:15:14;9.30;;;5.90;;
4547;SDS011;2286;51.570;7.090;2023-08-30T09:17:42;5.93;;;5.40;;
4547;SDS011;2286;51.570;7.090;2023-08-30T09:20:10;6.50;;;5.80;;
4547;SDS011;2286;51.570;7.090;2023-08-30T09:22:38;5.93;;;5.53;;
4547;SDS011;2286;51.570;7.090;2023-08-30T09:25:06;6.53;;;6.03;;
4547;SDS011;2286;51.570;7.090;2023-08-30T09:27:36;7.13;;;6.17;;
4547;SDS011;2286;51.570;7.090;2023-08-30T09:30:06;7.17;;;6.30;;
4547;SDS011;2286;51.570;7.090;2023-08-30T09:32:38;7.37;;;6.67;;
4547;SDS011;2286;51.570;7.090;2023-08-30T09:35:07;10.20;;;7.00;;
4547;SDS011;2286;51.570;7.090;2023-08-30T09:37:34;6.80;;;6.10;;
4547;SDS011;2286;51.570;7.090;2023-08-30T09:40:01;8.03;;;7.23;;
4547;SDS011;2286;51.570;7.090;2023-08-30T09:42:29;7.60;;;6.43;;
4547;SDS011;2286;51.570;7.090;2023-08-30T09:44:57;6.50;;;6.00;;
4547;SDS011;2286;51.570;7.090;2023-08-30T09:47:24;7.30;;;6.63;;
4547;SDS011;2286;51.570;7.090;2023-08-30T09:49:52;12.37;;;6.53;;
4547;SDS011;2286;51.570;7.090;2023-08-30T09:52:23;10.73;;;6.80;;
4547;SDS011;2286;51.570;7.090;2023-08-30T09:54:51;7.10;;;6.50;;
4547;SDS011;2286;51.570;7.090;2023-08-30T09:57:18;7.50;;;6.70;;
4547;SDS011;2286;51.570;7.090;2023-08-30T09:59:46;6.93;;;6.23;;
4547;SDS011;2286;51.570;7.090;2023-08-30T10:02:15;7.40;;;6.70;;
4547;SDS011;2286;51.570;7.090;2023-08-30T10:04:44;8.70;;;7.80;;
4547;SDS011;2286;51.570;7.090;2023-08-30T10:07:12;8.20;;;7.27;;
4547;SDS011;2286;51.570;7.090;2023-08-30T10:09:41;8.60;;;7.27;;
4547;SDS011;2286;51.570;7.090;2023-08-30T10:12:08;7.97;;;7.20;;
4547;SDS011;2286;51.570;7.090;2023-08-30T10:14:37;10.80;;;7.00;;
4547;SDS011;2286;51.570;7.090;2023-08-30T10:17:05;7.73;;;7.03;;
4547;SDS011;2286;51.570;7.090;2023-08-30T10:19:35;7.97;;;7.17;;
4547;SDS011;2286;51.570;7.090;2023-08-30T10:22:04;9.87;;;6.80;;
4547;SDS011;2286;51.570;7.090;2023-08-30T10:24:35;7.80;;;6.83;;
4547;SDS011;2286;51.570;7.090;2023-08-30T10:27:06;8.57;;;7.17;;
4547;SDS011;2286;51.570;7.090;2023-08-30T10:29:35;10.00;;;9.10;;
4547;SDS011;2286;51.570;7.090;2023-08-30T10:32:04;9.70;;;8.90;;
4547;SDS011;2286;51.570;7.090;2023-08-30T10:34:32;11.13;;;9.77;;
4547;SDS011;2286;51.570;7.090;2023-08-30T10:37:01;10.37;;;9.47;;
4547;SDS011;2286;51.570;7.090;2023-08-30T10:39:33;13.07;;;11.77;;
4547;SDS011;2286;51.570;7.090;2023-08-30T10:42:06;12.07;;;10.93;;
4547;SDS011;2286;51.570;7.090;2023-08-30T10:44:35;12.60;;;11.20;;
4547;SDS011;2286;51.570;7.090;2023-08-30T10:47:17;15.20;;;12.93;;
4547;SDS011;2286;51.570;7.090;2023-08-30T10:49:46;14.30;;;13.00;;
4547;SDS011;2286;51.570;7.090;2023-08-30T10:52:14;14.10;;;12.87;;
4547;SDS011;2286;51.570;7.090;2023-08-30T10:54:41;15.00;;;13.80;;
4547;SDS011;2286;51.570;7.090;2023-08-30T10:57:12;15.50;;;13.93;;
4547;SDS011;2286;51.570;7.090;2023-08-30T10:59:40;15.40;;;13.97;;
4547;SDS011;2286;51.570;7.090;2023-08-30T11:02:13;15.87;;;14.33;;
4547;SDS011;2286;51.570;7.090;2023-08-30T11:04:41;15.00;;;13.70;;
4547;SDS011;2286;51.570;7.090;2023-08-30T11:07:08;17.13;;;15.50;;
4547;SDS011;2286;51.570;7.090;2023-08-30T11:09:39;17.53;;;15.70;;
4547;SDS011;2286;51.570;7.090;2023-08-30T11:12:06;18.23;;;16.53;;
4547;SDS011;2286;51.570;7.090;2023-08-30T11:14:33;18.70;;;16.93;;
4547;SDS011;2286;51.570;7.090;2023-08-30T11:17:00;19.97;;;17.83;;
4547;SDS011;2286;51.570;7.090;2023-08-30T11:19:29;18.27;;;16.67;;
4547;SDS011;2286;51.570;7.090;2023-08-30T11:21:57;18.57;;;16.87;;
4547;SDS011;2286;51.570;7.090;2023-08-30T11:24:24;20.63;;;18.63;;
4547;SDS011;2286;51.570;7.090;2023-08-30T11:26:53;20.60;;;18.80;;
4547;SDS011;2286;51.570;7.090;2023-08-30T11:29:20;21.20;;;19.20;;
4547;SDS011;2286;51.570;7.090;2023-08-30T11:31:48;20.87;;;18.77;;
4547;SDS011;2286;51.570;7.090;2023-08-30T11:34:15;21.03;;;18.93;;
4547;SDS011;2286;51.570;7.090;2023-08-30T11:36:47;18.57;;;16.87;;
4547;SDS011;2286;51.570;7.090;2023-08-30T11:39:14;18.83;;;17.03;;
4547;SDS011;2286;51.570;7.090;2023-08-30T11:41:42;18.13;;;16.40;;
4547;SDS011;2286;51.570;7.090;2023-08-30T11:44:11;18.10;;;16.53;;
4547;SDS011;2286;51.570;7.090;2023-08-30T11:46:38;18.43;;;16.40;;
4547;SDS011;2286;51.570;7.090;2023-08-30T11:49:05;23.03;;;18.57;;
4547;SDS011;2286;51.570;7.090;2023-08-30T11:51:32;20.03;;;18.20;;
4547;SDS011;2286;51.570;7.090;2023-08-30T11:53:59;19.83;;;17.73;;
4547;SDS011;2286;51.570;7.090;2023-08-30T11:56:28;16.17;;;14.67;;
4547;SDS011;2286;51.570;7.090;2023-08-30T11:58:56;15.80;;;14.40;;
4547;SDS011;2286;51.570;7.090;2023-08-30T12:01:24;14.60;;;13.30;;
4547;SDS011;2286;51.570;7.090;2023-08-30T12:03:51;14.33;;;12.67;;
4547;SDS011;2286;51.570;7.090;2023-08-30T12:06:18;13.30;;;12.27;;
4547;SDS011;2286;51.570;7.090;2023-08-30T12:08:45;13.20;;;11.90;;
4547;SDS011;2286;51.570;7.090;2023-08-30T12:11:18;15.57;;;13.80;;
4547;SDS011;2286;51.570;7.090;2023-08-30T12:13:45;14.77;;;13.10;;
4547;SDS011;2286;51.570;7.090;2023-08-30T12:16:16;13.77;;;12.47;;
4547;SDS011;2286;51.570;7.090;2023-08-30T12:18:45;13.93;;;12.50;;
4547;SDS011;2286;51.570;7.090;2023-08-30T12:21:13;13.20;;;12.07;;
4547;SDS011;2286;51.570;7.090;2023-08-30T12:23:40;14.87;;;12.27;;
4547;SDS011;2286;51.570;7.090;2023-08-30T12:26:07;12.17;;;11.07;;
4547;SDS011;2286;51.570;7.090;2023-08-30T12:28:35;10.43;;;9.50;;
4547;SDS011;2286;51.570;7.090;2023-08-30T12:31:03;11.20;;;10.37;;
4547;SDS011;2286;51.570;7.090;2023-08-30T12:33:32;11.77;;;10.77;;
4547;SDS011;2286;51.570;7.090;2023-08-30T12:36:01;11.33;;;10.23;;
4547;SDS011;2286;51.570;7.090;2023-08-30T12:38:29;12.73;;;11.43;;
4547;SDS011;2286;51.570;7.090;2023-08-30T12:40:56;10.87;;;9.77;;
4547;SDS011;2286;51.570;7.090;2023-08-30T12:43:23;3.10;;;2.83;;
4547;SDS011;2286;51.570;7.090;2023-08-30T12:45:50;0.70;;;0.70;;
4547;SDS011;2286;51.570;7.090;2023-08-30T12:48:17;0.40;;;0.40;;
4547;SDS011;2286;51.570;7.090;2023-08-30T12:50:45;0.40;;;0.40;;
4547;SDS011;2286;51.570;7.090;2023-08-30T12:53:14;0.50;;;0.50;;
4547;SDS011;2286;51.570;7.090;2023-08-30T12:55:42;1.00;;;1.00;;
4547;SDS011;2286;51.570;7.090;2023-08-30T12:58:09;0.40;;;0.30;;
4547;SDS011;2286;51.570;7.090;2023-08-30T13:00:39;2.47;;;1.37;;
4547;SDS011;2286;51.570;7.090;2023-08-30T13:03:06;0.40;;;0.40;;
4547;SDS011;2286;51.570;7.090;2023-08-30T13:05:33;0.97;;;0.97;;
4547;SDS011;2286;51.570;7.090;2023-08-30T13:08:02;0.40;;;0.40;;
4547;SDS011;2286;51.570;7.090;2023-08-30T13:10:31;0.60;;;0.60;;
4547;SDS011;2286;51.570;7.090;2023-08-30T13:12:58;0.40;;;0.30;;
4547;SDS011;2286;51.570;7.090;2023-08-30T13:15:25;0.60;;;0.60;;
4547;SDS011;2286;51.570;7.090;2023-08-30T13:17:52;0.40;;;0.30;;
4547;SDS011;2286;51.570;7.090;2023-08-30T13:20:19;0.83;;;0.83;;
4547;SDS011;2286;51.570;7.090;2023-08-30T13:22:46;0.40;;;0.30;;
4547;SDS011;2286;51.570;7.090;2023-08-30T13:25:13;0.50;;;0.50;;
4547;SDS011;2286;51.570;7.090;2023-08-30T13:27:41;0.40;;;0.40;;
4547;SDS011;2286;51.570;7.090;2023-08-30T13:30:08;0.40;;;0.40;;
4547;SDS011;2286;51.570;7.090;2023-08-30T13:32:35;0.40;;;0.30;;
4547;SDS011;2286;51.570;7.090;2023-08-30T13:35:02;2.47;;;1.03;;
4547;SDS011;2286;51.570;7.090;2023-08-30T13:37:29;1.47;;;1.07;;
4547;SDS011;2286;51.570;7.090;2023-08-30T13:39:56;1.37;;;1.27;;
4547;SDS011;2286;51.570;7.090;2023-08-30T13:42:23;0.40;;;0.40;;
4547;SDS011;2286;51.570;7.090;2023-08-30T13:44:51;0.60;;;0.60;;
4547;SDS011;2286;51.570;7.090;2023-08-30T13:47:19;1.33;;;1.23;;
4547;SDS011;2286;51.570;7.090;2023-08-30T13:49:45;0.40;;;0.40;;
4547;SDS011;2286;51.570;7.090;2023-08-30T13:52:12;1.33;;;1.00;;
4547;SDS011;2286;51.570;7.090;2023-08-30T13:54:40;1.50;;;0.70;;
4547;SDS011;2286;51.570;7.090;2023-08-30T13:57:07;0.40;;;0.30;;
4547;SDS011;2286;51.570;7.090;2023-08-30T13:59:33;0.50;;;0.40;;
4547;SDS011;2286;51.570;7.090;2023-08-30T14:02:03;0.40;;;0.30;;
4547;SDS011;2286;51.570;7.090;2023-08-30T14:04:30;0.40;;;0.40;;
4547;SDS011;2286;51.570;7.090;2023-08-30T14:06:59;0.50;;;0.43;;
4547;SDS011;2286;51.570;7.090;2023-08-30T14:09:26;0.70;;;0.70;;
4547;SDS011;2286;51.570;7.090;2023-08-30T14:11:53;1.43;;;1.33;;
4547;SDS011;2286;51.570;7.090;2023-08-30T14:14:20;0.70;;;0.70;;
4547;SDS011;2286;51.570;7.090;2023-08-30T14:16:47;0.40;;;0.30;;
4547;SDS011;2286;51.570;7.090;2023-08-30T14:19:16;0.40;;;0.30;;
4547;SDS011;2286;51.570;7.090;2023-08-30T14:21:43;0.40;;;0.40;;
4547;SDS011;2286;51.570;7.090;2023-08-30T14:24:10;0.40;;;0.30;;
4547;SDS011;2286;51.570;7.090;2023-08-30T14:26:37;0.40;;;0.30;;
4547;SDS011;2286;51.570;7.090;2023-08-30T14:29:04;0.40;;;0.40;;
4547;SDS011;2286;51.570;7.090;2023-08-30T14:31:31;0.60;;;0.60;;
4547;SDS011;2286;51.570;7.090;2023-08-30T14:33:58;0.40;;;0.40;;
4547;SDS011;2286;51.570;7.090;2023-08-30T14:36:26;0.40;;;0.30;;
4547;SDS011;2286;51.570;7.090;2023-08-30T14:38:54;0.40;;;0.30;;
4547;SDS011;2286;51.570;7.090;2023-08-30T14:41:21;0.70;;;0.70;;
4547;SDS011;2286;51.570;7.090;2023-08-30T14:43:47;0.67;;;0.60;;
4547;SDS011;2286;51.570;7.090;2023-08-30T14:46:14;0.40;;;0.30;;
4547;SDS011;2286;51.570;7.090;2023-08-30T14:48:43;3.20;;;2.20;;
4547;SDS011;2286;51.570;7.090;2023-08-30T14:51:10;0.43;;;0.40;;
4547;SDS011;2286;51.570;7.090;2023-08-30T14:53:38;0.50;;;0.50;;
4547;SDS011;2286;51.570;7.090;2023-08-30T14:56:05;0.40;;;0.30;;
4547;SDS011;2286;51.570;7.090;2023-08-30T14:58:33;0.90;;;0.90;;